Time;durP1;ratioP1;P1;durP2;ratioP2;P2;SDS_P1;SDS_P2;PMS_P1;PMS_P2;Temp;Humidity;BMP_temperature;BMP_pressure;BME280_temperature;BME280_humidity;BME280_pressure;Samples;Min_cycle;Max_cycle;Signal;HPM_P1;HPM_P2
2022/01/27 00:04:37;;;;;;;77.50;47.50;;;3.10;78.10;;;;;;4967572;28;20023;-69
2022/01/27 00:07:04;;;;;;;78.30;48.07;;;3.10;78.00;;;;;;4975687;28;20123;-69
2022/01/27 00:09:45;;;;;;;80.13;47.47;;;3.10;78.00;;;;;;4975712;28;20117;-69
2022/01/27 00:12:15;;;;;;;75.73;47.23;;;3.10;78.00;;;;;;4975641;28;20106;-69
2022/01/27 00:14:46;;;;;;;90.40;53.97;;;3.00;78.10;;;;;;4976113;28;20049;-69
2022/01/27 00:17:14;;;;;;;83.37;50.40;;;3.00;78.00;;;;;;4975658;28;20399;-69
2022/01/27 00:19:41;;;;;;;83.53;51.70;;;3.00;77.90;;;;;;4975518;28;20030;-70
2022/01/27 00:22:07;;;;;;;85.67;52.07;;;3.00;77.80;;;;;;4975411;28;20027;-70
2022/01/27 00:24:32;;;;;;;83.83;50.83;;;3.00;77.90;;;;;;4975421;28;20034;-69
2022/01/27 00:26:59;;;;;;;72.03;45.67;;;3.00;77.70;;;;;;4975096;28;20035;-69
2022/01/27 00:29:25;;;;;;;68.30;42.33;;;2.90;77.80;;;;;;4975254;28;20054;-69
2022/01/27 00:31:51;;;;;;;66.53;39.87;;;2.90;77.70;;;;;;4975430;28;20019;-69
2022/01/27 00:34:17;;;;;;;66.53;40.80;;;2.90;77.80;;;;;;4975534;28;20034;-68
2022/01/27 00:36:42;;;;;;;69.07;41.80;;;2.90;77.90;;;;;;4975266;28;20047;-69
2022/01/27 00:39:08;;;;;;;60.47;37.87;;;2.90;78.00;;;;;;4975121;28;20084;-68
2022/01/27 00:41:34;;;;;;;60.43;37.37;;;2.90;78.10;;;;;;4974913;28;20161;-69
2022/01/27 00:44:01;;;;;;;61.90;38.77;;;2.90;78.20;;;;;;4975182;28;20093;-69
2022/01/27 00:46:27;;;;;;;63.93;37.83;;;2.90;78.30;;;;;;4975202;28;20031;-68
2022/01/27 00:48:53;;;;;;;62.33;38.03;;;2.90;78.30;;;;;;4974838;28;20093;-69
2022/01/27 00:51:22;;;;;;;64.07;38.73;;;2.90;78.40;;;;;;4974963;28;20107;-69
2022/01/27 00:54:14;;;;;;;61.53;38.33;;;2.80;78.30;;;;;;4974407;28;20034;-69
2022/01/27 00:56:49;;;;;;;62.93;37.30;;;2.80;78.30;;;;;;4974973;28;20443;-68
2022/01/27 01:01:49;;;;;;;68.20;40.53;;;2.80;78.40;;;;;;4975124;28;20031;-69
2022/01/27 01:04:15;;;;;;;72.93;44.20;;;2.80;78.50;;;;;;4974530;28;20033;-68
2022/01/27 01:06:44;;;;;;;72.70;45.23;;;2.80;78.30;;;;;;4974342;28;20482;-68
2022/01/27 01:14:46;;;;;;;73.63;46.60;;;2.70;78.00;;;;;;4974457;28;20081;-69
2022/01/27 01:33:10;;;;;;;71.40;42.93;;;2.70;78.70;;;;;;4974368;28;20109;-69
2022/01/27 01:35:49;;;;;;;71.93;41.93;;;2.70;78.60;;;;;;4974272;28;20027;-69
2022/01/27 01:38:18;;;;;;;65.47;41.17;;;2.60;78.60;;;;;;4974219;28;20514;-69
2022/01/27 01:40:49;;;;;;;69.93;42.43;;;2.60;79.20;;;;;;4974321;28;20023;-69
2022/01/27 01:43:16;;;;;;;69.23;42.50;;;2.60;79.00;;;;;;4974214;28;20039;-70
2022/01/27 01:45:42;;;;;;;72.03;40.73;;;2.60;79.20;;;;;;4974383;28;20026;-70
2022/01/27 01:48:08;;;;;;;69.10;41.63;;;2.50;79.40;;;;;;4973856;28;20043;-69
2022/01/27 01:50:34;;;;;;;70.97;41.77;;;2.60;79.40;;;;;;4974261;28;20031;-69
2022/01/27 01:53:00;;;;;;;72.37;43.10;;;2.50;79.40;;;;;;4974335;28;20033;-70
2022/01/27 01:55:26;;;;;;;73.03;41.87;;;2.60;79.40;;;;;;4973951;28;20154;-70
2022/01/27 01:57:52;;;;;;;69.90;41.53;;;2.60;79.50;;;;;;4973243;28;20179;-71
2022/01/27 02:00:18;;;;;;;74.20;43.47;;;2.60;79.30;;;;;;4971531;28;20056;-70
2022/01/27 02:02:44;;;;;;;73.33;44.87;;;2.60;79.30;;;;;;4971451;28;20030;-70
2022/01/27 02:05:11;;;;;;;74.60;45.23;;;2.60;79.00;;;;;;4972833;28;20488;-70
2022/01/27 02:08:15;;;;;;;73.77;42.60;;;2.60;79.00;;;;;;4977827;28;20045;-70
2022/01/27 02:19:18;;;;;;;71.30;41.43;;;2.50;78.30;;;;;;4977835;28;20038;-70
2022/01/27 02:21:54;;;;;;;70.50;42.03;;;2.40;78.30;;;;;;4977407;28;20034;-70
2022/01/27 02:24:22;;;;;;;69.10;42.33;;;2.40;78.50;;;;;;4977695;28;20023;-69
2022/01/27 02:26:49;;;;;;;68.03;42.70;;;2.40;78.40;;;;;;4977598;28;20550;-70
2022/01/27 02:29:17;;;;;;;65.80;41.37;;;2.30;78.40;;;;;;4977201;28;20039;-69
2022/01/27 02:31:43;;;;;;;65.80;40.53;;;2.30;78.60;;;;;;4977445;28;20030;-70
2022/01/27 02:34:09;;;;;;;65.70;40.07;;;2.30;78.70;;;;;;4977350;28;20464;-70
2022/01/27 02:36:35;;;;;;;73.47;40.50;;;2.30;78.80;;;;;;4977032;28;20038;-70
2022/01/27 02:39:03;;;;;;;72.20;41.53;;;2.30;78.90;;;;;;4977415;28;20034;-70
2022/01/27 02:41:40;;;;;;;65.17;39.40;;;2.30;79.00;;;;;;4977367;28;20523;-70
2022/01/27 02:44:06;;;;;;;68.13;40.93;;;2.30;78.90;;;;;;4977005;28;20086;-70
2022/01/27 02:46:42;;;;;;;62.87;38.80;;;2.20;78.80;;;;;;4977095;28;20035;-70
2022/01/27 02:49:08;;;;;;;61.63;38.37;;;2.30;78.40;;;;;;4976934;28;20562;-70
2022/01/27 02:51:36;;;;;;;62.87;37.90;;;2.20;78.20;;;;;;4976926;28;20023;-70
2022/01/27 02:54:02;;;;;;;64.57;38.47;;;2.20;78.30;;;;;;4977415;28;20142;-69
2022/01/27 02:56:28;;;;;;;63.30;37.73;;;2.10;78.20;;;;;;4977303;28;20027;-70
2022/01/27 02:58:54;;;;;;;61.83;37.67;;;2.10;78.40;;;;;;4975698;28;20090;-70
2022/01/27 03:01:21;;;;;;;63.97;38.80;;;2.10;78.30;;;;;;4974388;28;20026;-70
2022/01/27 03:03:47;;;;;;;67.80;39.20;;;2.10;78.40;;;;;;4974219;28;20405;-69
2022/01/27 03:06:13;;;;;;;63.23;38.07;;;2.10;78.40;;;;;;4976617;28;20042;-69
2022/01/27 03:08:39;;;;;;;64.43;39.23;;;2.10;78.50;;;;;;4976769;28;20050;-69
2022/01/27 03:11:12;;;;;;;63.20;39.37;;;2.10;78.60;;;;;;4976856;28;20023;-70
2022/01/27 03:13:39;;;;;;;60.33;38.97;;;2.10;78.60;;;;;;4976595;28;20101;-70
2022/01/27 03:16:07;;;;;;;66.93;39.90;;;2.00;78.60;;;;;;4976774;28;20081;-69
2022/01/27 03:18:32;;;;;;;70.33;40.77;;;2.10;78.80;;;;;;4975832;28;20419;-69
2022/01/27 03:20:58;;;;;;;65.23;37.63;;;2.10;78.90;;;;;;4976901;28;20081;-70
2022/01/27 03:23:24;;;;;;;60.03;38.13;;;2.10;78.90;;;;;;4976643;28;20105;-69
2022/01/27 03:25:49;;;;;;;65.70;39.33;;;2.10;78.90;;;;;;4976515;28;20027;-69
2022/01/27 03:28:18;;;;;;;68.47;39.93;;;2.10;78.90;;;;;;4976401;28;20042;-69
2022/01/27 03:30:43;;;;;;;72.37;39.90;;;2.00;78.90;;;;;;4976614;28;20019;-68
2022/01/27 03:33:09;;;;;;;66.77;39.83;;;2.00;78.90;;;;;;4976672;28;20037;-69
2022/01/27 03:35:35;;;;;;;64.53;38.47;;;2.00;78.90;;;;;;4976251;28;20038;-69
2022/01/27 03:38:00;;;;;;;66.53;37.70;;;2.00;79.00;;;;;;4976100;28;20054;-69
2022/01/27 03:40:26;;;;;;;61.33;37.30;;;1.90;79.00;;;;;;4976402;28;20034;-69
2022/01/27 03:43:03;;;;;;;64.30;38.60;;;1.90;79.10;;;;;;4976251;28;20037;-69
2022/01/27 03:45:29;;;;;;;70.87;40.07;;;1.90;79.10;;;;;;4975985;28;20026;-69
2022/01/27 03:47:56;;;;;;;69.17;39.50;;;1.90;79.30;;;;;;4976004;28;20046;-70
2022/01/27 03:50:22;;;;;;;62.60;38.33;;;1.90;79.50;;;;;;4975892;28;20037;-69
2022/01/27 03:52:48;;;;;;;67.93;41.23;;;1.90;79.50;;;;;;4976091;28;20035;-69
2022/01/27 03:55:13;;;;;;;60.40;38.87;;;1.90;79.50;;;;;;4975959;28;20101;-68
2022/01/27 03:57:39;;;;;;;63.40;40.87;;;1.90;79.70;;;;;;4975883;28;20023;-69
2022/01/27 04:00:07;;;;;;;65.13;37.80;;;1.90;79.80;;;;;;4976406;28;20162;-69
2022/01/27 04:02:36;;;;;;;67.00;39.70;;;1.90;79.60;;;;;;4975995;28;20031;-69
2022/01/27 04:05:02;;;;;;;65.30;39.07;;;1.90;79.60;;;;;;4975803;28;20118;-68
2022/01/27 04:07:27;;;;;;;60.63;38.47;;;1.90;79.70;;;;;;4975962;28;20122;-69
2022/01/27 04:09:53;;;;;;;63.93;38.83;;;1.90;79.60;;;;;;4975410;28;20407;-70
2022/01/27 04:12:19;;;;;;;60.50;39.37;;;1.90;79.40;;;;;;4976091;28;20038;-69
2022/01/27 04:14:44;;;;;;;61.23;37.37;;;1.90;79.40;;;;;;4975771;28;20033;-69
2022/01/27 04:17:10;;;;;;;62.40;40.00;;;1.90;79.40;;;;;;4975720;28;20035;-69
2022/01/27 04:19:36;;;;;;;65.53;38.10;;;1.90;79.30;;;;;;4975582;28;20031;-69
2022/01/27 04:22:02;;;;;;;70.97;38.20;;;1.90;79.30;;;;;;4975795;28;20055;-69
2022/01/27 04:24:30;;;;;;;59.03;35.73;;;1.90;79.30;;;;;;4975539;28;20113;-69
2022/01/27 04:27:03;;;;;;;66.23;36.20;;;1.80;79.20;;;;;;4975460;28;20027;-69
2022/01/27 04:29:32;;;;;;;58.17;36.90;;;1.80;79.10;;;;;;4975232;28;20038;-69
2022/01/27 04:32:01;;;;;;;59.40;37.17;;;1.80;79.20;;;;;;4975212;28;20101;-69
2022/01/27 04:34:26;;;;;;;64.73;37.90;;;1.80;79.40;;;;;;4975215;28;20022;-69
2022/01/27 04:36:54;;;;;;;59.37;37.47;;;1.70;79.30;;;;;;4975458;28;20019;-69
2022/01/27 04:39:28;;;;;;;59.23;36.83;;;1.70;79.20;;;;;;4975323;28;20468;-69
2022/01/27 04:42:07;;;;;;;64.37;38.17;;;1.80;79.30;;;;;;4975157;28;20501;-69
2022/01/27 04:44:41;;;;;;;62.00;39.00;;;1.80;79.40;;;;;;4975088;28;20031;-69
2022/01/27 04:47:13;;;;;;;59.50;38.50;;;1.80;79.40;;;;;;4974951;28;20031;-69
2022/01/27 04:49:38;;;;;;;62.63;38.73;;;1.70;79.60;;;;;;4973821;28;20030;-69
2022/01/27 04:52:05;;;;;;;61.27;37.70;;;1.70;79.80;;;;;;4975110;28;20042;-69
2022/01/27 04:57:02;;;;;;;58.03;36.53;;;1.70;79.60;;;;;;4974910;28;20547;-69
2022/01/27 04:59:32;;;;;;;57.80;36.70;;;1.70;79.70;;;;;;4974626;28;20463;-69
2022/01/27 05:02:03;;;;;;;67.03;40.43;;;1.70;79.80;;;;;;4974922;28;20026;-69
2022/01/27 05:04:33;;;;;;;60.30;37.00;;;1.70;79.70;;;;;;4974910;28;20037;-68
2022/01/27 05:06:59;;;;;;;65.60;37.67;;;1.70;79.60;;;;;;4974942;28;20033;-70
2022/01/27 05:09:25;;;;;;;66.40;37.13;;;1.70;79.80;;;;;;4973264;28;20408;-69
2022/01/27 05:11:55;;;;;;;61.97;36.70;;;1.60;79.70;;;;;;4974572;28;20035;-70
2022/01/27 05:14:24;;;;;;;60.03;35.97;;;1.60;79.90;;;;;;4974624;28;20111;-69
2022/01/27 05:16:50;;;;;;;59.33;37.73;;;1.60;80.00;;;;;;4974560;28;20027;-70
2022/01/27 05:19:16;;;;;;;61.53;37.27;;;1.60;80.00;;;;;;4974386;28;20420;-70
2022/01/27 05:21:42;;;;;;;60.33;36.07;;;1.60;80.10;;;;;;4974672;28;20050;-69
2022/01/27 05:24:09;;;;;;;60.53;35.43;;;1.60;80.10;;;;;;4974687;28;20511;-70
2022/01/27 05:26:35;;;;;;;62.03;36.87;;;1.60;80.10;;;;;;4974680;28;20030;-69
2022/01/27 05:29:03;;;;;;;64.50;38.60;;;1.60;80.10;;;;;;4974378;28;20034;-69
2022/01/27 05:31:29;;;;;;;58.83;35.60;;;1.60;80.00;;;;;;4974218;28;20025;-70
2022/01/27 05:33:55;;;;;;;59.53;36.27;;;1.60;80.00;;;;;;4974422;28;20030;-70
2022/01/27 05:36:21;;;;;;;59.53;35.83;;;1.60;79.90;;;;;;4974406;28;20387;-69
2022/01/27 05:38:47;;;;;;;60.17;35.93;;;1.50;79.80;;;;;;4973059;28;20114;-69
2022/01/27 05:41:14;;;;;;;55.93;35.87;;;1.50;79.70;;;;;;4973812;28;20015;-70
2022/01/27 05:43:40;;;;;;;61.20;35.60;;;1.50;79.80;;;;;;4974229;28;20035;-70
2022/01/27 05:46:06;;;;;;;56.87;34.37;;;1.40;79.70;;;;;;4973210;28;20376;-70
2022/01/27 05:48:32;;;;;;;56.30;35.33;;;1.40;79.70;;;;;;4972407;28;20031;-70
2022/01/27 05:50:59;;;;;;;56.73;35.50;;;1.40;79.80;;;;;;4974135;28;20023;-70
2022/01/27 05:53:25;;;;;;;58.70;35.67;;;1.40;79.70;;;;;;4972831;28;20055;-70
2022/01/27 05:55:52;;;;;;;56.87;34.70;;;1.40;79.70;;;;;;4972474;28;20027;-70
2022/01/27 05:58:19;;;;;;;61.80;36.87;;;1.40;79.70;;;;;;4974050;28;20109;-71
2022/01/27 06:00:45;;;;;;;61.00;37.20;;;1.30;79.60;;;;;;4974186;28;20061;-73
2022/01/27 06:03:10;;;;;;;56.40;36.63;;;1.30;79.60;;;;;;4973589;28;20041;-73
2022/01/27 06:05:36;;;;;;;64.13;36.37;;;1.30;79.80;;;;;;4973645;28;20514;-74
2022/01/27 06:08:02;;;;;;;69.97;39.23;;;1.30;80.00;;;;;;4973013;28;20507;-74
2022/01/27 06:10:28;;;;;;;67.23;37.87;;;1.30;79.80;;;;;;4972182;28;20455;-72
2022/01/27 06:12:58;;;;;;;59.17;37.07;;;1.30;79.80;;;;;;4973859;28;20492;-73
2022/01/27 06:15:25;;;;;;;66.83;38.17;;;1.30;80.00;;;;;;4973104;28;20499;-73
2022/01/27 06:17:51;;;;;;;58.87;37.47;;;1.30;80.20;;;;;;4972545;28;20058;-74
2022/01/27 06:20:18;;;;;;;62.83;39.07;;;1.30;80.20;;;;;;4972367;28;20090;-73
2022/01/27 06:22:44;;;;;;;65.37;40.03;;;1.30;80.30;;;;;;4973677;28;20023;-74
2022/01/27 06:25:11;;;;;;;63.47;38.93;;;1.30;80.30;;;;;;4973397;28;20034;-71
2022/01/27 06:27:37;;;;;;;59.20;37.13;;;1.30;80.20;;;;;;4974758;28;20411;-74
2022/01/27 06:30:05;;;;;;;60.37;37.00;;;1.30;80.20;;;;;;4974694;28;20031;-74
2022/01/27 06:32:31;;;;;;;57.67;35.90;;;1.20;80.20;;;;;;4976316;28;20038;-74
2022/01/27 06:34:57;;;;;;;66.03;39.13;;;1.20;80.10;;;;;;4976030;28;20030;-72
2022/01/27 06:37:23;;;;;;;61.67;38.00;;;1.20;80.20;;;;;;4973611;28;20399;-74
2022/01/27 06:39:49;;;;;;;58.73;36.87;;;1.20;80.20;;;;;;4973543;28;20034;-73
2022/01/27 06:42:15;;;;;;;62.47;36.83;;;1.20;80.20;;;;;;4973631;28;20031;-72
2022/01/27 06:44:40;;;;;;;60.83;37.30;;;1.20;80.10;;;;;;4973124;28;20041;-73
2022/01/27 06:47:07;;;;;;;60.97;37.13;;;1.20;80.20;;;;;;4973592;28;20107;-75
2022/01/27 06:49:33;;;;;;;62.60;36.90;;;1.20;80.20;;;;;;4973336;28;20027;-75
2022/01/27 06:51:59;;;;;;;63.13;37.47;;;1.20;80.30;;;;;;4973474;28;20023;-73
2022/01/27 06:54:24;;;;;;;66.63;38.10;;;1.20;80.20;;;;;;4976332;28;20530;-74
2022/01/27 06:56:50;;;;;;;65.60;38.60;;;1.20;80.20;;;;;;4975944;28;20023;-74
2022/01/27 06:59:16;;;;;;;61.50;37.80;;;1.20;80.20;;;;;;4976652;28;20045;-75
2022/01/27 07:01:41;;;;;;;68.63;40.00;;;1.20;80.30;;;;;;4977035;28;20026;-75
2022/01/27 07:04:07;;;;;;;67.90;39.97;;;1.20;80.30;;;;;;4977054;28;20041;-74
2022/01/27 07:06:34;;;;;;;71.37;39.90;;;1.20;80.50;;;;;;4975884;28;20435;-74
2022/01/27 07:09:00;;;;;;;64.20;38.57;;;1.20;80.60;;;;;;4974432;28;20081;-75
2022/01/27 07:11:26;;;;;;;64.87;39.33;;;1.20;80.70;;;;;;4973482;28;20436;-72
2022/01/27 07:13:51;;;;;;;67.53;39.23;;;1.20;81.00;;;;;;4973221;28;20114;-73
2022/01/27 07:16:17;;;;;;;64.23;37.20;;;1.20;81.00;;;;;;4974019;28;20859;-74
2022/01/27 07:18:43;;;;;;;63.63;38.77;;;1.30;81.00;;;;;;4974453;28;20031;-73
2022/01/27 07:21:09;;;;;;;70.53;41.57;;;1.30;81.00;;;;;;4974725;28;20027;-72
2022/01/27 07:23:34;;;;;;;70.00;39.60;;;1.30;81.00;;;;;;4976114;28;20031;-77
2022/01/27 07:26:00;;;;;;;77.27;41.23;;;1.30;81.10;;;;;;4976288;28;20475;-73
2022/01/27 07:28:26;;;;;;;75.07;41.87;;;1.30;81.00;;;;;;4975970;28;20038;-72
2022/01/27 07:30:52;;;;;;;77.00;43.00;;;1.40;81.00;;;;;;4974350;28;20065;-74
2022/01/27 07:33:17;;;;;;;78.40;44.70;;;1.40;81.00;;;;;;4972199;28;20031;-73
2022/01/27 07:35:43;;;;;;;86.00;46.20;;;1.40;81.10;;;;;;4974546;28;20115;-73
2022/01/27 07:38:09;;;;;;;87.27;46.60;;;1.40;81.20;;;;;;4975904;28;20086;-71
2022/01/27 07:40:35;;;;;;;81.60;46.00;;;1.40;81.40;;;;;;4975916;28;20022;-71
2022/01/27 07:43:01;;;;;;;86.60;45.33;;;1.50;81.60;;;;;;4975811;28;20063;-73
2022/01/27 07:45:27;;;;;;;79.80;47.50;;;1.60;81.70;;;;;;4974234;28;20543;-73
2022/01/27 07:47:53;;;;;;;79.73;45.50;;;1.60;81.70;;;;;;4975584;28;20117;-73
2022/01/27 07:50:19;;;;;;;98.77;45.87;;;1.60;81.90;;;;;;4975934;28;20031;-73
2022/01/27 07:52:45;;;;;;;81.30;46.03;;;1.60;81.80;;;;;;4975672;28;20430;-73
2022/01/27 07:55:11;;;;;;;88.10;45.37;;;1.60;81.90;;;;;;4976017;28;20058;-73
2022/01/27 07:57:38;;;;;;;81.77;45.23;;;1.70;82.00;;;;;;4975869;28;20393;-72
2022/01/27 08:00:05;;;;;;;79.40;44.33;;;1.70;82.20;;;;;;4975559;28;20034;-73
2022/01/27 08:02:31;;;;;;;76.37;42.97;;;1.80;82.20;;;;;;4975708;28;20023;-72
2022/01/27 08:04:57;;;;;;;78.53;44.53;;;1.80;82.10;;;;;;4974553;28;20491;-72
2022/01/27 08:07:22;;;;;;;94.47;45.67;;;1.90;82.10;;;;;;4974630;28;20023;-72
2022/01/27 08:09:49;;;;;;;90.93;48.50;;;1.90;82.00;;;;;;4975240;28;20429;-72
2022/01/27 08:12:15;;;;;;;88.97;46.43;;;1.90;81.90;;;;;;4971587;28;20038;-73
2022/01/27 08:14:41;;;;;;;83.20;44.03;;;2.00;82.00;;;;;;4975108;28;20018;-70
2022/01/27 08:17:07;;;;;;;78.20;45.83;;;2.00;82.00;;;;;;4974995;28;20038;-72
2022/01/27 08:19:33;;;;;;;76.43;44.50;;;2.00;82.00;;;;;;4975227;28;20047;-72
2022/01/27 08:21:58;;;;;;;78.30;45.37;;;2.00;82.20;;;;;;4975206;28;20472;-72
2022/01/27 08:24:24;;;;;;;74.60;42.90;;;2.00;82.30;;;;;;4975658;28;20023;-73
2022/01/27 08:26:53;;;;;;;75.40;44.03;;;2.10;82.60;;;;;;4975582;28;20106;-73
2022/01/27 08:29:27;;;;;;;77.43;43.60;;;2.10;82.40;;;;;;4975170;28;20117;-73
2022/01/27 08:31:56;;;;;;;72.77;44.70;;;2.10;82.40;;;;;;4975308;28;20037;-73
2022/01/27 08:34:30;;;;;;;79.67;45.80;;;2.20;82.50;;;;;;4975072;28;20062;-72
2022/01/27 08:36:57;;;;;;;75.90;43.23;;;2.20;82.70;;;;;;4975435;28;20102;-73
2022/01/27 08:39:24;;;;;;;84.03;43.50;;;2.20;82.80;;;;;;4975114;28;20391;-73
2022/01/27 08:41:50;;;;;;;73.37;44.90;;;2.30;82.90;;;;;;4974752;28;20058;-73
2022/01/27 08:44:15;;;;;;;73.03;43.27;;;2.30;83.00;;;;;;4974817;28;20057;-72
2022/01/27 08:46:41;;;;;;;72.90;42.93;;;2.40;82.90;;;;;;4974482;28;20538;-73
2022/01/27 08:49:07;;;;;;;74.23;43.40;;;2.50;83.00;;;;;;4974054;28;20061;-72
2022/01/27 08:51:33;;;;;;;72.60;42.37;;;2.50;83.00;;;;;;4974767;28;20364;-73
2022/01/27 08:53:59;;;;;;;73.80;41.53;;;2.60;83.00;;;;;;4974753;28;20541;-72
2022/01/27 08:56:25;;;;;;;66.03;39.97;;;2.70;83.00;;;;;;4974704;28;20018;-71
2022/01/27 08:58:50;;;;;;;66.57;39.33;;;2.70;82.90;;;;;;4974667;28;20037;-71
2022/01/27 09:01:17;;;;;;;62.70;39.20;;;2.80;82.60;;;;;;4974452;28;20042;-72
2022/01/27 09:03:43;;;;;;;67.57;38.13;;;2.80;82.80;;;;;;4974631;28;20071;-72
2022/01/27 09:06:09;;;;;;;62.63;37.87;;;2.90;82.40;;;;;;4975170;28;20438;-72
2022/01/27 09:08:34;;;;;;;58.80;36.90;;;3.00;82.50;;;;;;4973733;28;20067;-72
2022/01/27 09:11:00;;;;;;;62.77;38.00;;;3.00;82.30;;;;;;4974276;28;20117;-72
2022/01/27 09:13:26;;;;;;;63.87;36.87;;;3.10;82.00;;;;;;4974606;28;20058;-71
2022/01/27 09:15:51;;;;;;;63.27;35.27;;;3.10;81.60;;;;;;4974031;28;20431;-71
2022/01/27 09:18:17;;;;;;;57.97;35.20;;;3.20;81.40;;;;;;4973042;28;20035;-71
2022/01/27 09:20:44;;;;;;;56.93;34.77;;;3.20;81.00;;;;;;4974505;28;20057;-72
2022/01/27 09:23:14;;;;;;;55.13;34.07;;;3.30;80.40;;;;;;4974642;28;20042;-73
2022/01/27 09:25:47;;;;;;;52.70;33.43;;;3.40;80.30;;;;;;4972978;28;20494;-71
2022/01/27 09:28:14;;;;;;;54.35;34.10;;;3.40;80.60;;;;;;4974032;28;20426;-72
2022/01/27 09:30:41;;;;;;;61.23;33.93;;;3.50;80.60;;;;;;4974347;28;20026;-71
2022/01/27 09:33:08;;;;;;;63.43;35.40;;;3.60;80.20;;;;;;4974455;28;20031;-72
2022/01/27 09:35:34;;;;;;;63.27;34.07;;;3.70;80.00;;;;;;4974503;28;20070;-71
2022/01/27 09:38:00;;;;;;;52.67;33.30;;;3.70;80.10;;;;;;4974266;28;20511;-71
2022/01/27 09:40:28;;;;;;;54.87;31.80;;;3.70;80.00;;;;;;4974189;28;20054;-72
2022/01/27 09:42:55;;;;;;;53.33;31.83;;;3.80;80.20;;;;;;4974278;28;20022;-73
2022/01/27 09:45:22;;;;;;;57.10;33.97;;;3.80;79.70;;;;;;4974269;28;20030;-72
2022/01/27 09:48:02;;;;;;;52.83;32.67;;;3.90;79.40;;;;;;4974196;28;20471;-72
2022/01/27 09:51:24;;;;;;;51.67;31.87;;;4.00;79.10;;;;;;4974085;28;20031;-72
2022/01/27 09:53:17;;;;;;;51.60;32.67;;;4.00;78.80;;;;;;4966840;28;20038;-72
2022/01/27 09:55:43;;;;;;;49.97;31.30;;;4.00;78.50;;;;;;4974444;28;20158;-72
2022/01/27 09:58:09;;;;;;;48.80;31.53;;;4.10;78.50;;;;;;4974109;28;20038;-72
2022/01/27 10:00:35;;;;;;;49.20;32.70;;;4.10;78.80;;;;;;4973901;28;20031;-69
2022/01/27 10:03:13;;;;;;;55.70;33.77;;;4.20;78.60;;;;;;4974007;28;20022;-70
2022/01/27 10:05:40;;;;;;;52.63;33.13;;;4.20;78.50;;;;;;4974060;28;20019;-72
2022/01/27 10:08:14;;;;;;;51.13;30.07;;;4.30;78.10;;;;;;4973957;28;20451;-72
2022/01/27 10:10:42;;;;;;;43.67;28.50;;;4.30;77.80;;;;;;4974003;28;20019;-72
2022/01/27 10:13:27;;;;;;;48.10;29.17;;;4.40;77.60;;;;;;4973949;28;20476;-72
2022/01/27 10:15:55;;;;;;;39.97;26.50;;;4.40;77.30;;;;;;4974118;28;20082;-72
2022/01/27 10:18:24;;;;;;;40.83;28.07;;;4.50;77.00;;;;;;4974149;28;20026;-72
2022/01/27 10:20:51;;;;;;;40.13;26.87;;;4.50;76.90;;;;;;4973941;28;20023;-71
2022/01/27 10:23:20;;;;;;;42.17;27.90;;;4.60;76.60;;;;;;4974223;28;20411;-72
2022/01/27 10:25:57;;;;;;;49.30;31.23;;;4.70;76.50;;;;;;4974143;28;20094;-72
2022/01/27 10:28:45;;;;;;;51.57;30.67;;;4.80;76.30;;;;;;4977058;28;20043;-72
2022/01/27 10:31:21;;;;;;;45.47;27.60;;;4.80;76.00;;;;;;4977256;28;20033;-71
2022/01/27 10:33:59;;;;;;;47.27;28.90;;;4.90;75.80;;;;;;4977778;28;20113;-72
2022/01/27 10:36:31;;;;;;;44.07;28.03;;;4.90;76.00;;;;;;4977798;28;20101;-72
2022/01/27 10:39:17;;;;;;;45.30;29.43;;;5.00;75.50;;;;;;4977311;28;20023;-71
2022/01/27 10:41:55;;;;;;;47.20;28.07;;;5.10;75.40;;;;;;4977466;28;20415;-72
2022/01/27 10:44:23;;;;;;;42.67;27.67;;;5.10;75.30;;;;;;4977222;28;20026;-72
2022/01/27 10:47:12;;;;;;;43.53;28.27;;;5.20;75.40;;;;;;4977674;28;20019;-72
2022/01/27 10:49:45;;;;;;;47.60;29.00;;;5.30;75.10;;;;;;4976073;28;20399;-72
2022/01/27 10:52:12;;;;;;;43.40;29.08;;;5.30;75.20;;;;;;4977304;28;20125;-72
2022/01/27 10:54:41;;;;;;;49.53;30.43;;;5.40;75.50;;;;;;4977105;28;20023;-72
2022/01/27 10:57:10;;;;;;;43.20;29.30;;;5.40;75.20;;;;;;4977016;28;20499;-72
2022/01/27 10:59:37;;;;;;;48.43;30.17;;;5.50;75.10;;;;;;4977107;28;20030;-73
2022/01/27 11:02:12;;;;;;;47.87;30.90;;;5.60;74.80;;;;;;4975823;28;20038;-72
2022/01/27 11:04:41;;;;;;;44.67;29.63;;;5.60;74.30;;;;;;4977049;28;20023;-71
2022/01/27 11:07:12;;;;;;;54.10;33.33;;;5.70;74.80;;;;;;4976824;28;20030;-73
2022/01/27 11:09:44;;;;;;;56.00;37.63;;;5.70;74.70;;;;;;4976765;28;20058;-71
2022/01/27 11:12:17;;;;;;;61.57;40.40;;;5.80;74.70;;;;;;4976800;28;20101;-72
2022/01/27 11:14:48;;;;;;;66.73;41.47;;;5.80;75.20;;;;;;4976753;28;20023;-72
2022/01/27 11:17:19;;;;;;;68.47;44.53;;;5.80;75.90;;;;;;4977054;28;20026;-71
2022/01/27 11:27:20;;;;;;;82.77;53.00;;;5.80;75.90;;;;;;4977259;28;20484;-73
2022/01/27 11:30:03;;;;;;;70.80;48.07;;;5.80;76.10;;;;;;4976511;28;20034;-72
2022/01/27 11:32:38;;;;;;;;;;;5.70;76.40;;;;;;4976799;28;20019;-72
2022/01/27 11:35:24;;;;;;;88.23;55.30;;;5.80;76.70;;;;;;4976524;28;19912;-72
2022/01/27 11:37:53;;;;;;;84.07;52.03;;;5.70;77.20;;;;;;4975938;28;20034;-72
2022/01/27 11:40:20;;;;;;;84.20;52.90;;;5.70;77.30;;;;;;4976029;28;20022;-72
2022/01/27 11:42:55;;;;;;;89.77;55.17;;;5.70;77.10;;;;;;4976401;28;20081;-72
2022/01/27 11:45:20;;;;;;;87.27;56.97;;;5.70;77.40;;;;;;4976093;28;20034;-72
2022/01/27 11:48:09;;;;;;;84.63;51.33;;;5.70;77.10;;;;;;4975076;28;20047;-72
2022/01/27 11:51:06;;;;;;;90.63;56.83;;;5.70;77.60;;;;;;4976404;28;20125;-72
2022/01/27 11:53:45;;;;;;;82.23;52.43;;;5.70;77.90;;;;;;4972137;28;20475;-72
2022/01/27 11:56:31;;;;;;;79.20;51.10;;;5.80;78.00;;;;;;4976194;28;20117;-72
2022/01/27 11:58:58;;;;;;;68.87;47.07;;;5.70;77.80;;;;;;4975925;28;20487;-72
2022/01/27 12:01:31;;;;;;;77.40;49.77;;;5.70;78.10;;;;;;4976299;28;20375;-72
2022/01/27 12:04:09;;;;;;;80.37;51.33;;;5.80;78.50;;;;;;4976115;28;20045;-71
2022/01/27 12:06:37;;;;;;;76.47;48.23;;;5.80;78.50;;;;;;4975905;28;20038;-70
2022/01/27 12:09:21;;;;;;;75.37;49.23;;;5.80;78.40;;;;;;4975477;28;20050;-72
2022/01/27 12:11:49;;;;;;;77.30;49.40;;;5.80;78.10;;;;;;4976098;28;20031;-73
2022/01/27 12:14:21;;;;;;;74.03;47.63;;;5.80;77.80;;;;;;4975692;28;20031;-73
2022/01/27 12:17:09;;;;;;;73.77;46.37;;;5.80;78.00;;;;;;4974530;28;20023;-72
2022/01/27 12:19:53;;;;;;;72.83;46.43;;;5.80;78.00;;;;;;4975731;28;20045;-69
2022/01/27 12:22:22;;;;;;;76.90;47.20;;;5.80;78.10;;;;;;4974266;28;20038;-73
2022/01/27 12:24:52;;;;;;;76.27;50.27;;;5.80;78.30;;;;;;4974488;28;20031;-73
2022/01/27 12:27:19;;;;;;;77.57;49.67;;;5.80;78.50;;;;;;4975307;28;20098;-72
2022/01/27 12:29:55;;;;;;;102.57;51.93;;;5.80;78.70;;;;;;4975069;28;20066;-73
2022/01/27 12:32:31;;;;;;;80.93;49.90;;;5.80;78.80;;;;;;4975414;28;20022;-73
2022/01/27 12:35:09;;;;;;;75.00;49.57;;;5.80;79.00;;;;;;4975444;28;20027;-72
2022/01/27 12:37:40;;;;;;;78.93;50.83;;;5.80;79.10;;;;;;4975544;28;20442;-73
2022/01/27 12:40:22;;;;;;;82.43;52.60;;;5.80;79.00;;;;;;4975159;28;20029;-73
2022/01/27 12:42:59;;;;;;;81.27;51.43;;;5.80;79.40;;;;;;4973647;28;20487;-71
2022/01/27 12:45:30;;;;;;;77.93;49.97;;;5.80;79.80;;;;;;4975238;28;20023;-72
2022/01/27 12:48:03;;;;;;;76.30;49.23;;;5.80;79.70;;;;;;4973626;28;20495;-72
2022/01/27 12:50:29;;;;;;;79.90;49.40;;;5.80;80.40;;;;;;4974686;28;20145;-72
2022/01/27 12:53:01;;;;;;;77.23;49.27;;;5.90;80.00;;;;;;4974728;28;20023;-70
2022/01/27 12:55:34;;;;;;;79.93;50.60;;;5.80;80.10;;;;;;4972211;28;20031;-72
2022/01/27 12:58:02;;;;;;;76.07;49.47;;;5.90;79.90;;;;;;4971643;28;20031;-74
2022/01/27 13:00:28;;;;;;;80.87;49.27;;;5.90;80.00;;;;;;4972539;28;20093;-73
2022/01/27 13:03:01;;;;;;;73.13;48.10;;;5.90;79.80;;;;;;4974174;28;20023;-75
2022/01/27 13:05:35;;;;;;;74.50;49.47;;;5.90;79.80;;;;;;4974700;28;20022;-74
2022/01/27 13:08:04;;;;;;;81.83;50.63;;;5.90;79.70;;;;;;4974342;28;20050;-74
2022/01/27 13:10:30;;;;;;;81.80;50.63;;;5.90;80.00;;;;;;4974293;28;20046;-75
2022/01/27 13:13:04;;;;;;;79.90;51.43;;;5.90;80.00;;;;;;4974579;28;20392;-75
2022/01/27 13:15:31;;;;;;;89.77;51.83;;;5.90;79.90;;;;;;4974333;28;20499;-76
2022/01/27 13:18:02;;;;;;;77.00;48.90;;;5.90;80.10;;;;;;4974075;28;20019;-74
2022/01/27 13:20:37;;;;;;;80.07;50.83;;;5.90;80.20;;;;;;4972567;28;20063;-72
2022/01/27 13:23:49;;;;;;;;;;;5.90;80.20;;;;;;4971661;28;20033;-72
2022/01/27 13:25:57;;;;;;;78.07;51.60;;;5.90;80.40;;;;;;4962164;28;20397;-72
2022/01/27 13:28:28;;;;;;;;;;;5.80;80.60;;;;;;4974179;28;20043;-72
2022/01/27 13:31:07;;;;;;;79.20;49.77;;;5.80;80.70;;;;;;4974240;28;20350;-72
2022/01/27 13:33:44;;;;;;;89.10;55.63;;;5.90;80.60;;;;;;4974022;28;20388;-71